createdAt,value
2018-06-25T00:00:29.622Z,21.20
2018-06-25T00:01:29.576Z,13.30
2018-06-25T00:02:29.572Z,12.70
2018-06-25T00:03:29.559Z,14.50
2018-06-25T00:04:29.493Z,13.60
2018-06-25T00:05:29.484Z,17.70
2018-06-25T00:06:29.468Z,17.50
2018-06-25T00:07:29.413Z,10.90
2018-06-25T00:08:29.375Z,12.80
2018-06-25T00:09:29.353Z,12.60
2018-06-25T00:10:29.372Z,14.20
2018-06-25T00:11:29.283Z,9.60
2018-06-25T00:12:29.264Z,14.00
2018-06-25T00:13:29.223Z,10.80
2018-06-25T00:14:29.190Z,13.50
2018-06-25T00:15:29.161Z,65.90
2018-06-25T00:16:29.140Z,51.70
2018-06-25T00:17:29.113Z,38.20
2018-06-25T00:20:29.013Z,28.70
2018-06-25T00:21:28.991Z,23.90
2018-06-25T00:22:28.943Z,23.60
2018-06-25T00:23:28.920Z,19.40
2018-06-25T00:24:28.929Z,17.10
2018-06-25T00:25:28.880Z,13.90
2018-06-25T00:26:28.830Z,14.70
2018-06-25T00:27:28.791Z,11.00
2018-06-25T00:28:28.771Z,15.10
2018-06-25T00:29:28.740Z,13.20
2018-06-25T00:30:28.705Z,12.20
2018-06-25T00:31:28.678Z,13.60
2018-06-25T00:32:28.649Z,17.20
2018-06-25T00:33:28.621Z,11.90
2018-06-25T00:34:28.785Z,12.90
2018-06-25T00:35:28.554Z,11.60
2018-06-25T00:36:28.561Z,7.20
2018-06-25T00:37:28.486Z,8.50
2018-06-25T00:38:28.456Z,9.60
2018-06-25T00:39:28.453Z,13.90
2018-06-25T00:40:28.392Z,11.80
2018-06-25T00:41:28.373Z,48.50
2018-06-25T00:42:28.345Z,15.70
2018-06-25T00:43:28.310Z,12.80
2018-06-25T00:44:28.278Z,15.90
2018-06-25T00:45:28.394Z,13.40
2018-06-25T00:46:28.222Z,11.00
2018-06-25T00:47:28.187Z,4.60
2018-06-25T00:48:28.156Z,8.90
2018-06-25T00:49:28.121Z,15.50
2018-06-25T00:50:28.098Z,45.70
2018-06-25T00:51:28.062Z,17.20
2018-06-25T00:52:28.025Z,29.50
2018-06-25T00:53:28.004Z,24.30
2018-06-25T00:54:27.963Z,11.80
2018-06-25T00:55:27.932Z,11.70
2018-06-25T00:56:28.101Z,17.00
2018-06-25T00:57:27.871Z,11.00
2018-06-25T00:58:27.844Z,15.50
2018-06-25T00:59:27.818Z,12.50
2018-06-25T01:00:27.782Z,14.30
2018-06-25T01:01:27.747Z,15.70
2018-06-25T01:02:27.723Z,13.50
2018-06-25T01:03:27.687Z,8.80
2018-06-25T01:04:27.655Z,8.30
2018-06-25T01:05:27.636Z,6.20
2018-06-25T01:06:27.712Z,12.80
2018-06-25T01:07:27.566Z,7.00
2018-06-25T01:08:27.539Z,9.40
2018-06-25T01:09:27.502Z,9.20
2018-06-25T01:10:27.497Z,10.50
2018-06-25T01:11:27.447Z,9.10
2018-06-25T01:12:27.411Z,11.20
2018-06-25T01:13:27.381Z,11.00
2018-06-25T01:14:27.356Z,7.50
2018-06-25T01:15:27.323Z,6.70
2018-06-25T01:16:27.304Z,4.70
2018-06-25T01:17:27.257Z,10.40
2018-06-25T01:18:27.226Z,7.20
2018-06-25T01:19:27.201Z,9.50
2018-06-25T01:20:27.167Z,7.90
2018-06-25T01:21:27.126Z,5.10
2018-06-25T01:22:27.117Z,10.50
2018-06-25T01:23:27.071Z,7.90
2018-06-25T01:24:27.041Z,8.90
2018-06-25T01:25:27.005Z,9.80
2018-06-25T01:26:26.977Z,7.50
2018-06-25T01:27:26.967Z,8.70
2018-06-25T01:28:27.324Z,8.50
2018-06-25T01:29:26.891Z,7.90
2018-06-25T01:30:26.856Z,8.50
2018-06-25T01:31:26.831Z,4.10
2018-06-25T01:32:26.787Z,12.10
2018-06-25T01:33:26.784Z,10.20
2018-06-25T01:35:26.851Z,6.60
2018-06-25T01:36:26.662Z,7.00
2018-06-25T01:37:26.632Z,5.90
2018-06-25T01:38:26.602Z,6.70
2018-06-25T01:39:26.599Z,8.80
2018-06-25T01:40:26.550Z,9.40
2018-06-25T01:41:26.515Z,10.80
2018-06-25T01:42:26.493Z,5.40
2018-06-25T01:43:26.458Z,9.60
2018-06-25T01:44:26.417Z,5.80
2018-06-25T01:45:26.396Z,11.00
2018-06-25T01:46:26.354Z,7.00
2018-06-25T01:47:26.335Z,7.20
2018-06-25T01:48:26.303Z,7.10
2018-06-25T01:49:26.325Z,8.40
2018-06-25T01:50:26.353Z,5.60
2018-06-25T01:51:26.218Z,9.80
2018-06-25T01:52:26.180Z,9.00
2018-06-25T01:53:26.140Z,8.30
2018-06-25T01:54:26.114Z,8.60
2018-06-25T01:55:26.101Z,6.80
2018-06-25T01:56:26.053Z,8.70
2018-06-25T01:57:26.026Z,6.80
2018-06-25T01:58:25.987Z,5.10
2018-06-25T01:59:25.960Z,7.10
2018-06-25T02:00:25.926Z,9.10
2018-06-25T02:01:26.006Z,15.60
2018-06-25T02:02:25.857Z,14.20
2018-06-25T02:03:25.827Z,14.50
2018-06-25T02:04:25.796Z,7.50
2018-06-25T02:05:25.768Z,6.80
2018-06-25T02:06:25.742Z,3.70
2018-06-25T02:07:25.849Z,5.40
2018-06-25T02:08:25.701Z,8.00
2018-06-25T02:09:25.641Z,3.40
2018-06-25T02:10:25.614Z,5.00
2018-06-25T02:11:25.587Z,9.40
2018-06-25T02:12:25.546Z,8.20
2018-06-25T02:13:25.514Z,9.50
2018-06-25T02:14:25.492Z,11.60
2018-06-25T02:15:25.487Z,12.10
2018-06-25T02:16:25.433Z,10.10
2018-06-25T02:17:25.401Z,10.30
2018-06-25T02:18:25.373Z,10.90
2018-06-25T02:19:25.330Z,32.80
2018-06-25T02:20:25.353Z,11.80
2018-06-25T02:21:25.267Z,10.80
2018-06-25T02:22:25.233Z,9.90
2018-06-25T02:23:25.213Z,8.10
2018-06-25T02:24:25.175Z,11.60
2018-06-25T02:25:25.142Z,10.00
2018-06-25T02:26:25.107Z,8.30
2018-06-25T02:27:25.092Z,16.50
2018-06-25T02:28:25.049Z,6.50
2018-06-25T02:29:25.013Z,10.60
2018-06-25T02:30:24.991Z,11.10
2018-06-25T02:31:24.952Z,6.40
2018-06-25T02:32:24.926Z,11.70
2018-06-25T02:33:24.921Z,13.40
2018-06-25T02:34:24.866Z,10.70
2018-06-25T02:35:24.828Z,6.00
2018-06-25T02:36:24.793Z,11.80
2018-06-25T02:37:24.770Z,7.10
2018-06-25T02:38:24.738Z,16.20
2018-06-25T02:39:24.697Z,21.50
2018-06-25T02:40:24.694Z,7.20
2018-06-25T02:41:24.659Z,12.40
2018-06-25T02:42:24.607Z,10.50
2018-06-25T02:43:24.572Z,6.30
2018-06-25T02:44:24.742Z,14.00
2018-06-25T02:45:24.518Z,13.70
2018-06-25T02:46:24.494Z,7.20
2018-06-25T02:47:24.447Z,10.00
2018-06-25T02:48:24.418Z,8.20
2018-06-25T02:49:24.392Z,10.40
2018-06-25T02:50:24.360Z,8.30
2018-06-25T02:51:24.325Z,12.20
2018-06-25T02:52:24.292Z,9.30
2018-06-25T02:53:24.263Z,9.80
2018-06-25T02:54:24.230Z,8.20
2018-06-25T02:55:24.200Z,6.10
2018-06-25T02:56:24.170Z,11.80
2018-06-25T02:57:24.132Z,15.50
2018-06-25T02:58:24.106Z,11.00
2018-06-25T02:59:24.067Z,10.20
2018-06-25T03:00:24.044Z,9.00
2018-06-25T03:01:24.033Z,8.40
2018-06-25T03:02:24.025Z,12.30
2018-06-25T03:03:23.960Z,18.60
2018-06-25T03:04:23.917Z,21.80
2018-06-25T03:05:23.881Z,8.00
2018-06-25T03:06:23.855Z,12.20
2018-06-25T03:07:23.825Z,12.50
2018-06-25T03:08:23.814Z,9.60
2018-06-25T03:09:23.754Z,8.70
2018-06-25T03:10:23.721Z,10.20
2018-06-25T03:11:23.727Z,8.40
2018-06-25T03:12:23.660Z,10.20
2018-06-25T03:13:23.630Z,7.00
2018-06-25T03:14:23.596Z,7.20
2018-06-25T03:15:23.713Z,14.10
2018-06-25T03:16:23.537Z,8.30
2018-06-25T03:17:23.502Z,5.20
2018-06-25T03:18:23.477Z,11.50
2018-06-25T03:19:23.448Z,9.80
2018-06-25T03:20:23.406Z,13.20
2018-06-25T03:21:23.375Z,10.20
2018-06-25T03:22:23.342Z,8.50
2018-06-25T03:23:23.309Z,8.80
2018-06-25T03:24:23.285Z,6.80
2018-06-25T03:25:23.245Z,10.70
2018-06-25T03:26:23.230Z,8.20
2018-06-25T03:27:23.186Z,7.30
2018-06-25T03:28:23.154Z,11.20
2018-06-25T03:29:23.126Z,12.50
2018-06-25T03:30:23.092Z,8.10
2018-06-25T03:31:23.059Z,7.50
2018-06-25T03:32:23.026Z,7.70
2018-06-25T03:33:22.992Z,9.20
2018-06-25T03:34:22.960Z,10.60
2018-06-25T03:35:22.928Z,9.70
2018-06-25T03:36:22.921Z,8.60
2018-06-25T03:37:22.873Z,10.70
2018-06-25T03:38:22.851Z,9.00
2018-06-25T03:39:22.805Z,10.60
2018-06-25T03:40:22.772Z,7.00
2018-06-25T03:41:22.746Z,6.40
2018-06-25T03:42:22.719Z,4.80
2018-06-25T03:43:22.721Z,10.50
2018-06-25T03:44:22.651Z,5.90
2018-06-25T03:45:22.612Z,8.70
2018-06-25T03:46:22.582Z,9.20
2018-06-25T03:47:22.576Z,10.20
2018-06-25T03:48:22.517Z,11.50
2018-06-25T03:49:22.482Z,11.70
2018-06-25T03:50:22.459Z,10.90
2018-06-25T03:51:22.579Z,14.70
2018-06-25T03:52:22.407Z,8.00
2018-06-25T03:53:22.361Z,12.20
2018-06-25T03:54:22.354Z,11.10
2018-06-25T03:55:22.407Z,12.20
2018-06-25T03:56:22.264Z,9.40
2018-06-25T03:57:22.235Z,6.60
2018-06-25T03:58:22.201Z,7.80
2018-06-25T03:59:22.173Z,7.70
2018-06-25T04:00:22.148Z,9.70
2018-06-25T04:01:22.101Z,10.30
2018-06-25T04:02:22.085Z,7.90
2018-06-25T04:03:22.048Z,7.30
2018-06-25T04:04:22.045Z,14.70
2018-06-25T04:05:21.984Z,13.60
2018-06-25T04:06:21.946Z,8.90
2018-06-25T04:07:21.917Z,16.20
2018-06-25T04:08:21.878Z,24.10
2018-06-25T04:09:21.854Z,7.50
2018-06-25T04:10:21.817Z,9.60
2018-06-25T04:11:21.795Z,12.90
2018-06-25T04:12:21.749Z,7.50
2018-06-25T04:13:21.723Z,7.30
2018-06-25T04:14:21.690Z,7.60
2018-06-25T04:15:21.662Z,7.40
2018-06-25T04:16:21.627Z,10.40
2018-06-25T04:17:21.596Z,7.70
2018-06-25T04:18:21.564Z,6.90
2018-06-25T04:19:21.535Z,10.40
2018-06-25T04:20:21.497Z,11.60
2018-06-25T04:21:21.474Z,12.80
2018-06-25T04:22:21.433Z,7.00
2018-06-25T04:23:21.401Z,6.40
2018-06-25T04:24:21.369Z,9.40
2018-06-25T04:25:21.336Z,7.90
2018-06-25T04:26:21.311Z,5.10
2018-06-25T04:27:21.287Z,6.30
2018-06-25T04:28:21.244Z,8.10
2018-06-25T04:29:21.216Z,6.00
2018-06-25T04:30:21.177Z,6.00
2018-06-25T04:31:21.148Z,3.90
2018-06-25T04:32:21.121Z,4.50
2018-06-25T04:33:21.129Z,6.80
2018-06-25T04:34:21.047Z,8.30
2018-06-25T04:35:21.016Z,9.70
2018-06-25T04:36:20.983Z,3.80
2018-06-25T04:37:21.111Z,4.40
2018-06-25T04:38:20.919Z,7.00
2018-06-25T04:39:20.892Z,6.50
2018-06-25T04:40:20.895Z,5.40
2018-06-25T04:41:20.834Z,7.70
2018-06-25T04:42:20.800Z,4.00
2018-06-25T04:43:20.777Z,6.50
2018-06-25T04:44:20.731Z,7.20
2018-06-25T04:45:20.759Z,3.40
2018-06-25T04:46:20.668Z,3.90
2018-06-25T04:47:20.632Z,3.10
2018-06-25T04:48:20.606Z,6.80
2018-06-25T04:49:20.573Z,7.20
2018-06-25T04:50:20.539Z,11.80
2018-06-25T04:51:20.508Z,7.00
2018-06-25T04:52:20.470Z,9.60
2018-06-25T04:53:20.648Z,10.50
2018-06-25T04:54:20.411Z,4.60
2018-06-25T04:55:20.377Z,4.90
2018-06-25T04:56:20.457Z,11.60
2018-06-25T04:57:20.310Z,7.80
2018-06-25T04:58:20.279Z,6.90
2018-06-25T04:59:20.249Z,9.30
2018-06-25T05:00:20.218Z,4.40
2018-06-25T05:01:20.185Z,13.80
2018-06-25T05:02:20.165Z,5.00
2018-06-25T05:03:20.119Z,13.00
2018-06-25T05:04:20.093Z,6.10
2018-06-25T05:05:20.061Z,5.90
2018-06-25T05:06:20.031Z,4.90
2018-06-25T05:07:19.988Z,8.10
2018-06-25T05:08:19.970Z,10.80
2018-06-25T05:09:19.931Z,12.00
2018-06-25T05:10:19.917Z,10.20
2018-06-25T05:11:19.870Z,9.60
2018-06-25T05:12:19.826Z,7.60
2018-06-25T05:13:19.797Z,8.10
2018-06-25T05:14:19.764Z,4.60
2018-06-25T05:15:19.737Z,11.50
2018-06-25T05:16:19.701Z,5.20
2018-06-25T05:17:19.668Z,7.20
2018-06-25T05:19:19.614Z,3.70
2018-06-25T05:20:19.567Z,6.60
2018-06-25T05:21:19.537Z,10.10
2018-06-25T05:22:19.521Z,4.90
2018-06-25T05:23:19.475Z,8.20
2018-06-25T05:24:19.450Z,5.10
2018-06-25T05:25:19.409Z,4.70
2018-06-25T05:26:19.377Z,7.00
2018-06-25T05:27:19.346Z,4.20
2018-06-25T05:28:19.311Z,3.90
2018-06-25T05:29:19.287Z,5.90
2018-06-25T05:30:19.249Z,9.50
2018-06-25T05:31:19.214Z,6.60
2018-06-25T05:32:19.181Z,5.70
2018-06-25T05:33:19.153Z,10.30
2018-06-25T05:34:19.119Z,3.60
2018-06-25T05:35:19.085Z,5.90
2018-06-25T05:36:19.058Z,5.70
2018-06-25T05:37:19.025Z,5.20
2018-06-25T05:38:18.990Z,4.40
2018-06-25T05:39:18.954Z,5.20
2018-06-25T05:40:18.919Z,6.70
2018-06-25T05:41:18.893Z,5.50
2018-06-25T05:42:18.858Z,4.60
2018-06-25T05:43:18.825Z,5.50
2018-06-25T05:44:18.792Z,6.30
2018-06-25T05:45:18.762Z,3.50
2018-06-25T05:46:18.729Z,3.00
2018-06-25T05:47:18.693Z,4.70
2018-06-25T05:48:18.663Z,8.00
2018-06-25T05:49:18.632Z,5.20
2018-06-25T05:50:18.598Z,5.70
2018-06-25T05:51:18.563Z,10.20
2018-06-25T05:52:18.588Z,4.50
2018-06-25T05:53:18.500Z,6.30
2018-06-25T05:54:18.467Z,3.50
2018-06-25T05:55:18.434Z,3.60
2018-06-25T05:56:18.406Z,9.20
2018-06-25T05:57:18.375Z,7.10
2018-06-25T05:58:18.342Z,5.00
2018-06-25T05:59:18.304Z,4.90
2018-06-25T06:00:18.269Z,5.20
2018-06-25T06:01:18.239Z,5.50
2018-06-25T06:02:18.209Z,10.50
2018-06-25T06:03:18.175Z,5.90
2018-06-25T06:04:18.140Z,9.20
2018-06-25T06:05:18.510Z,5.30
2018-06-25T06:06:18.081Z,6.60
2018-06-25T06:07:18.048Z,6.30
2018-06-25T06:08:18.014Z,4.80
2018-06-25T06:09:18.546Z,9.60
2018-06-25T06:10:17.946Z,7.60
2018-06-25T06:11:18.114Z,4.70
2018-06-25T06:12:17.880Z,6.10
2018-06-25T06:13:17.849Z,7.40
2018-06-25T06:14:17.821Z,6.20
2018-06-25T06:15:17.783Z,6.40
2018-06-25T06:16:18.087Z,3.30
2018-06-25T06:18:17.692Z,3.90
2018-06-25T06:19:17.653Z,4.20
2018-06-25T06:20:17.620Z,5.30
2018-06-25T06:21:17.589Z,5.70
2018-06-25T06:22:17.757Z,5.30
2018-06-25T06:23:17.520Z,6.10
2018-06-25T06:24:17.491Z,6.80
2018-06-25T06:25:17.458Z,6.60
2018-06-25T06:26:17.476Z,6.40
2018-06-25T06:27:17.394Z,12.10
2018-06-25T06:28:17.364Z,6.10
2018-06-25T06:29:17.327Z,6.50
2018-06-25T06:30:17.320Z,6.30
2018-06-25T06:31:17.265Z,6.00
2018-06-25T06:32:17.228Z,7.40
2018-06-25T06:33:17.195Z,7.30
2018-06-25T06:34:17.161Z,8.30
2018-06-25T06:35:17.130Z,4.50
2018-06-25T06:36:17.095Z,5.10
2018-06-25T06:37:17.063Z,3.80
2018-06-25T06:38:17.033Z,4.60
2018-06-25T06:39:16.999Z,5.00
2018-06-25T06:40:16.965Z,7.70
2018-06-25T06:41:16.937Z,7.50
2018-06-25T06:42:16.911Z,8.00
2018-06-25T06:43:16.868Z,5.30
2018-06-25T06:44:16.834Z,7.70
2018-06-25T06:45:16.801Z,3.50
2018-06-25T06:46:16.768Z,6.30
2018-06-25T06:47:16.744Z,5.60
2018-06-25T06:48:16.700Z,6.20
2018-06-25T06:49:16.671Z,10.60
2018-06-25T06:50:16.636Z,8.40
2018-06-25T06:51:16.604Z,7.10
2018-06-25T06:52:16.571Z,7.40
2018-06-25T06:53:16.635Z,6.70
2018-06-25T06:55:16.476Z,5.00
2018-06-25T06:56:16.441Z,8.30
2018-06-25T06:57:16.409Z,6.10
2018-06-25T06:58:16.469Z,5.00
2018-06-25T06:59:16.347Z,7.30
2018-06-25T07:00:16.314Z,7.30
2018-06-25T07:01:16.277Z,11.90
2018-06-25T07:02:16.244Z,5.40
2018-06-25T07:03:16.209Z,9.40
2018-06-25T07:04:16.190Z,4.50
2018-06-25T07:05:16.150Z,5.80
2018-06-25T07:06:16.119Z,6.70
2018-06-25T07:07:16.080Z,6.70
2018-06-25T07:08:16.054Z,5.80
2018-06-25T07:09:16.011Z,7.00
2018-06-25T07:10:16.040Z,6.10
2018-06-25T07:11:15.959Z,4.80
2018-06-25T07:12:15.916Z,5.40
2018-06-25T07:13:15.889Z,6.90
2018-06-25T07:14:15.856Z,5.50
2018-06-25T07:15:15.826Z,6.60
2018-06-25T07:16:15.787Z,3.80
2018-06-25T07:17:15.756Z,5.50
2018-06-25T07:18:15.722Z,8.50
2018-06-25T07:19:15.684Z,4.30
2018-06-25T07:20:15.657Z,4.50
2018-06-25T07:21:15.623Z,4.60
2018-06-25T07:22:15.592Z,5.50
2018-06-25T07:23:15.554Z,6.80
2018-06-25T07:24:15.531Z,8.00
2018-06-25T07:25:15.501Z,8.30
2018-06-25T07:26:15.459Z,5.60
2018-06-25T07:27:15.424Z,4.20
2018-06-25T07:28:15.390Z,6.00
2018-06-25T07:29:15.423Z,6.30
2018-06-25T07:30:15.331Z,6.80
2018-06-25T07:31:15.291Z,5.70
2018-06-25T07:32:15.261Z,10.50
2018-06-25T07:33:15.236Z,6.40
2018-06-25T07:34:15.205Z,5.30
2018-06-25T07:35:15.160Z,6.80
2018-06-25T07:36:15.528Z,6.80
2018-06-25T07:37:15.096Z,3.50
2018-06-25T07:38:15.074Z,6.40
2018-06-25T07:39:15.028Z,6.00
2018-06-25T07:40:14.995Z,7.40
2018-06-25T07:41:14.963Z,6.20
2018-06-25T07:42:15.130Z,5.00
2018-06-25T07:43:14.902Z,3.90
2018-06-25T07:44:14.872Z,4.10
2018-06-25T07:45:14.838Z,5.40
2018-06-25T07:46:14.801Z,5.00
2018-06-25T07:47:14.873Z,5.40
2018-06-25T07:48:14.734Z,4.00
2018-06-25T07:49:14.697Z,4.80
2018-06-25T07:50:14.670Z,3.80
2018-06-25T07:51:14.639Z,5.00
2018-06-25T07:52:14.605Z,5.70
2018-06-25T07:53:14.831Z,5.00
2018-06-25T07:54:14.532Z,4.20
2018-06-25T07:55:14.501Z,3.60
2018-06-25T07:56:14.470Z,8.20
2018-06-25T07:57:14.437Z,2.50
2018-06-25T07:58:14.402Z,6.50
2018-06-25T07:59:14.435Z,4.80
2018-06-25T08:00:14.342Z,3.00
2018-06-25T08:01:14.311Z,4.00
2018-06-25T08:02:14.275Z,7.50
2018-06-25T08:04:14.204Z,5.70
2018-06-25T08:05:14.169Z,7.10
2018-06-25T08:06:14.142Z,3.90
2018-06-25T08:07:14.105Z,5.70
2018-06-25T08:08:14.069Z,5.70
2018-06-25T08:09:14.195Z,5.10
2018-06-25T08:10:14.037Z,4.60
2018-06-25T08:11:13.973Z,4.40
2018-06-25T08:12:13.941Z,4.10
2018-06-25T08:13:13.903Z,5.10
2018-06-25T08:14:13.872Z,7.80
2018-06-25T08:15:13.836Z,3.50
2018-06-25T08:16:13.831Z,6.60
2018-06-25T08:17:13.772Z,4.80
2018-06-25T08:18:13.741Z,6.30
2018-06-25T08:19:13.709Z,5.30
2018-06-25T08:20:13.678Z,2.80
2018-06-25T08:21:13.646Z,6.00
2018-06-25T08:22:13.605Z,5.70
2018-06-25T08:23:13.578Z,4.70
2018-06-25T08:24:13.540Z,4.90
2018-06-25T08:25:13.507Z,5.50
2018-06-25T08:26:13.486Z,7.80
2018-06-25T08:27:13.442Z,6.20
2018-06-25T08:28:13.407Z,7.10
2018-06-25T08:29:13.374Z,9.30
2018-06-25T08:30:13.346Z,7.40
2018-06-25T08:31:13.710Z,3.50
2018-06-25T08:32:13.277Z,9.20
2018-06-25T08:33:13.248Z,2.60
2018-06-25T08:34:13.283Z,7.80
2018-06-25T08:35:13.183Z,5.20
2018-06-25T08:36:13.144Z,7.30
2018-06-25T08:37:13.115Z,6.20
2018-06-25T08:38:13.079Z,4.10
2018-06-25T08:39:13.044Z,3.90
2018-06-25T08:40:13.080Z,6.80
2018-06-25T08:41:12.977Z,8.00
2018-06-25T08:42:12.948Z,4.80
2018-06-25T08:43:12.908Z,2.90
2018-06-25T08:44:12.879Z,4.00
2018-06-25T08:45:12.894Z,6.40
2018-06-25T08:46:12.827Z,5.30
2018-06-25T08:47:12.783Z,4.70
2018-06-25T08:48:12.771Z,5.20
2018-06-25T08:49:12.709Z,4.10
2018-06-25T08:50:12.676Z,5.80
2018-06-25T08:51:12.654Z,6.00
2018-06-25T08:52:12.611Z,7.70
2018-06-25T08:53:12.577Z,4.60
2018-06-25T08:54:12.543Z,11.50
2018-06-25T08:55:12.517Z,4.00
2018-06-25T08:56:12.486Z,6.50
2018-06-25T08:57:12.448Z,6.10
2018-06-25T08:58:12.561Z,7.60
2018-06-25T08:59:12.381Z,7.70
2018-06-25T09:00:12.343Z,10.70
2018-06-25T09:01:12.311Z,5.80
2018-06-25T09:02:12.282Z,6.80
2018-06-25T09:03:12.273Z,5.20
2018-06-25T09:04:12.229Z,6.40
2018-06-25T09:05:12.198Z,11.90
2018-06-25T09:06:12.151Z,8.90
2018-06-25T09:07:12.109Z,6.20
2018-06-25T09:08:12.079Z,7.10
2018-06-25T09:09:12.046Z,7.10
2018-06-25T09:10:12.012Z,5.50
2018-06-25T09:11:11.978Z,5.50
2018-06-25T09:12:11.957Z,5.80
2018-06-25T09:13:11.912Z,6.50
2018-06-25T09:14:11.881Z,4.70
2018-06-25T09:15:11.898Z,5.10
2018-06-25T09:16:11.810Z,9.30
2018-06-25T09:17:11.785Z,4.50
2018-06-25T09:18:11.749Z,5.00
2018-06-25T09:19:11.736Z,8.80
2018-06-25T09:20:11.679Z,2.60
2018-06-25T09:21:11.644Z,2.60
2018-06-25T09:22:11.668Z,4.60
2018-06-25T09:23:11.576Z,5.90
2018-06-25T09:24:11.549Z,6.80
2018-06-25T09:25:11.517Z,8.60
2018-06-25T09:26:11.487Z,9.00
2018-06-25T09:27:11.448Z,24.50
2018-06-25T09:28:11.421Z,19.50
2018-06-25T09:29:11.383Z,47.00
2018-06-25T09:30:11.348Z,28.30
2018-06-25T09:31:11.310Z,13.90
2018-06-25T09:32:11.279Z,11.30
2018-06-25T09:33:11.245Z,5.20
2018-06-25T09:34:11.212Z,5.00
2018-06-25T09:35:11.212Z,14.60
2018-06-25T09:36:11.143Z,8.20
2018-06-25T09:37:11.114Z,10.10
2018-06-25T09:38:11.085Z,8.20
2018-06-25T09:39:11.046Z,6.20
2018-06-25T09:40:11.016Z,4.50
2018-06-25T09:41:11.055Z,8.50
2018-06-25T09:42:10.947Z,4.90
2018-06-25T09:43:10.913Z,6.60
2018-06-25T09:44:10.879Z,3.90
2018-06-25T09:45:10.843Z,10.00
2018-06-25T09:46:10.811Z,5.40
2018-06-25T09:47:10.777Z,5.50
2018-06-25T09:48:10.743Z,6.80
2018-06-25T09:49:10.742Z,5.70
2018-06-25T09:50:10.732Z,5.10
2018-06-25T09:51:10.643Z,4.60
2018-06-25T09:52:10.613Z,3.90
2018-06-25T09:53:10.576Z,5.00
2018-06-25T09:54:10.543Z,6.10
2018-06-25T09:55:10.807Z,5.20
2018-06-25T09:56:10.480Z,7.40
2018-06-25T09:57:10.453Z,2.60
2018-06-25T09:58:10.410Z,3.10
2018-06-25T09:59:10.372Z,4.30
2018-06-25T10:00:10.341Z,5.50
2018-06-25T10:01:10.313Z,6.80
2018-06-25T10:02:10.285Z,5.00
2018-06-25T10:03:10.242Z,6.00
2018-06-25T10:04:10.218Z,7.60
2018-06-25T10:05:10.187Z,9.40
2018-06-25T10:06:10.445Z,4.00
2018-06-25T10:07:10.103Z,5.00
2018-06-25T10:08:10.073Z,4.70
2018-06-25T10:09:10.040Z,14.50
2018-06-25T10:10:10.008Z,7.80
2018-06-25T10:11:09.974Z,7.40
2018-06-25T10:12:10.087Z,7.30
2018-06-25T10:13:09.908Z,10.50
2018-06-25T10:14:09.874Z,6.60
2018-06-25T10:15:09.849Z,5.60
2018-06-25T10:16:09.809Z,11.50
2018-06-25T10:17:09.776Z,9.90
2018-06-25T10:18:09.738Z,5.10
2018-06-25T10:19:09.711Z,8.30
2018-06-25T10:20:09.675Z,6.40
2018-06-25T10:21:09.640Z,4.70
2018-06-25T10:22:09.618Z,9.30
2018-06-25T10:23:09.783Z,42.60
2018-06-25T10:24:09.547Z,35.10
2018-06-25T10:25:09.518Z,18.60
2018-06-25T10:26:09.475Z,11.60
2018-06-25T10:27:09.442Z,14.70
2018-06-25T10:29:09.373Z,14.50
2018-06-25T10:30:09.344Z,7.60
2018-06-25T10:31:09.309Z,11.20
2018-06-25T10:32:09.272Z,7.40
2018-06-25T10:33:09.242Z,9.50
2018-06-25T10:34:09.216Z,9.10
2018-06-25T10:35:09.182Z,6.90
2018-06-25T10:36:09.142Z,7.20
2018-06-25T10:37:09.114Z,6.10
2018-06-25T10:38:09.083Z,5.90
2018-06-25T10:39:09.052Z,6.10
2018-06-25T10:40:09.016Z,11.20
2018-06-25T10:41:08.988Z,7.70
2018-06-25T10:42:08.994Z,7.40
2018-06-25T10:43:08.918Z,9.20
2018-06-25T10:44:08.891Z,7.30
2018-06-25T10:45:08.845Z,6.70
2018-06-25T10:46:08.819Z,5.70
2018-06-25T10:47:08.789Z,4.70
2018-06-25T10:48:08.753Z,8.50
2018-06-25T10:49:08.725Z,7.70
2018-06-25T10:50:08.701Z,7.00
2018-06-25T10:51:08.670Z,11.70
2018-06-25T10:52:08.624Z,4.50
2018-06-25T10:53:08.598Z,4.10
2018-06-25T10:54:08.580Z,6.20
2018-06-25T10:55:08.878Z,8.00
2018-06-25T10:56:08.494Z,11.40
2018-06-25T10:57:08.468Z,3.80
2018-06-25T10:58:08.483Z,8.00
2018-06-25T10:59:08.396Z,6.50
2018-06-25T11:00:08.573Z,7.30
2018-06-25T11:01:08.411Z,5.80
2018-06-25T11:02:08.306Z,10.80
2018-06-25T11:03:08.268Z,5.80
2018-06-25T11:04:08.281Z,11.30
2018-06-25T11:05:08.205Z,7.20
2018-06-25T11:06:08.172Z,6.40
2018-06-25T11:07:08.181Z,10.40
2018-06-25T11:08:08.108Z,11.40
2018-06-25T11:09:08.080Z,8.00
2018-06-25T11:10:08.086Z,4.80
2018-06-25T11:11:08.009Z,7.10
2018-06-25T11:12:07.979Z,9.00
2018-06-25T11:13:07.994Z,5.50
2018-06-25T11:14:07.938Z,7.50
2018-06-25T11:15:07.883Z,5.90
2018-06-25T11:16:07.856Z,7.00
2018-06-25T11:17:07.823Z,5.40
2018-06-25T11:18:07.794Z,11.40
2018-06-25T11:19:07.757Z,5.50
2018-06-25T11:20:07.722Z,10.10
2018-06-25T11:21:07.697Z,9.20
2018-06-25T11:22:07.667Z,11.20
2018-06-25T11:23:07.630Z,10.40
2018-06-25T11:24:07.599Z,19.60
2018-06-25T11:25:07.569Z,14.50
2018-06-25T11:26:07.537Z,13.30
2018-06-25T11:27:08.066Z,18.70
2018-06-25T11:28:07.481Z,10.90
2018-06-25T11:29:07.445Z,17.10
2018-06-25T11:30:07.414Z,15.30
2018-06-25T11:31:07.381Z,20.70
2018-06-25T11:32:07.355Z,18.40
2018-06-25T11:33:07.319Z,12.20
2018-06-25T11:34:07.292Z,20.40
2018-06-25T11:35:07.258Z,18.60
2018-06-25T11:36:07.223Z,26.30
2018-06-25T11:37:07.192Z,25.80
2018-06-25T11:38:07.167Z,26.90
2018-06-25T11:39:07.131Z,38.30
2018-06-25T11:40:07.103Z,26.10
2018-06-25T11:41:07.082Z,28.20
2018-06-25T11:42:07.054Z,26.30
2018-06-25T11:43:07.023Z,27.60
2018-06-25T11:44:06.978Z,19.80
2018-06-25T11:45:06.962Z,19.00
2018-06-25T11:46:06.926Z,30.40
2018-06-25T11:47:06.901Z,44.30
2018-06-25T11:48:06.861Z,53.40
2018-06-25T11:49:06.857Z,46.00
2018-06-25T11:50:06.801Z,40.90
2018-06-25T11:51:06.778Z,30.70
2018-06-25T11:52:06.755Z,20.70
2018-06-25T11:53:06.709Z,20.40
2018-06-25T11:54:06.679Z,18.60
2018-06-25T11:55:06.662Z,11.50
2018-06-25T11:56:06.623Z,17.50
2018-06-25T11:57:06.588Z,26.80
2018-06-25T11:58:06.558Z,19.10
2018-06-25T11:59:06.559Z,29.60
2018-06-25T12:00:06.546Z,23.30
2018-06-25T12:01:06.471Z,19.50
2018-06-25T12:02:06.474Z,29.90
2018-06-25T12:03:06.519Z,18.90
2018-06-25T12:04:06.784Z,22.70
2018-06-25T12:05:06.355Z,14.40
2018-06-25T12:06:06.326Z,16.80
2018-06-25T12:07:06.299Z,17.40
2018-06-25T12:08:06.277Z,19.10
2018-06-25T12:09:06.256Z,23.70
2018-06-25T12:10:06.455Z,46.80
2018-06-25T12:11:06.193Z,35.60
2018-06-25T12:12:06.227Z,29.40
2018-06-25T12:13:06.139Z,27.80
2018-06-25T12:14:06.229Z,28.80
2018-06-25T12:15:06.093Z,30.30
2018-06-25T12:16:06.288Z,16.70
2018-06-25T12:17:06.033Z,28.90
2018-06-25T12:18:06.008Z,29.00
2018-06-25T12:19:06.044Z,24.90
2018-06-25T12:20:05.992Z,23.40
2018-06-25T12:21:05.932Z,26.00
2018-06-25T12:22:06.075Z,14.30
2018-06-25T12:23:05.960Z,21.90
2018-06-25T12:24:05.855Z,22.50
2018-06-25T12:25:05.839Z,20.10
2018-06-25T12:26:05.805Z,18.20
2018-06-25T12:27:05.777Z,15.10
2018-06-25T12:28:05.759Z,22.80
2018-06-25T12:29:05.731Z,21.20
2018-06-25T12:30:05.712Z,19.30
2018-06-25T12:31:05.688Z,27.00
2018-06-25T12:32:05.676Z,44.50
2018-06-25T12:33:05.632Z,34.60
2018-06-25T12:34:05.617Z,27.40
2018-06-25T12:35:05.630Z,27.20
2018-06-25T12:36:05.566Z,27.00
2018-06-25T12:37:05.529Z,26.30
2018-06-25T12:38:05.659Z,25.70
2018-06-25T12:39:05.485Z,19.70
2018-06-25T12:40:05.454Z,22.00
2018-06-25T12:41:05.424Z,17.10
2018-06-25T12:42:05.406Z,18.90
2018-06-25T12:43:05.384Z,26.00
2018-06-25T12:44:05.366Z,10.80
2018-06-25T12:45:05.321Z,18.10
2018-06-25T12:46:05.304Z,13.20
2018-06-25T12:47:05.274Z,9.70
2018-06-25T12:48:05.262Z,9.30
2018-06-25T12:49:05.383Z,15.80
2018-06-25T12:50:05.221Z,14.40
2018-06-25T12:51:05.237Z,10.10
2018-06-25T12:52:05.140Z,13.00
2018-06-25T12:53:05.219Z,16.50
2018-06-25T12:54:05.094Z,14.00
2018-06-25T12:55:05.071Z,10.50
2018-06-25T12:56:05.036Z,7.30
2018-06-25T12:57:05.046Z,15.40
2018-06-25T12:58:05.000Z,10.30
2018-06-25T12:59:04.961Z,11.10
2018-06-25T13:00:04.933Z,14.50
2018-06-25T13:01:04.911Z,11.70
2018-06-25T13:02:04.877Z,9.60
2018-06-25T13:03:04.851Z,17.00
2018-06-25T13:04:04.829Z,14.90
2018-06-25T13:05:04.827Z,18.30
2018-06-25T13:06:04.779Z,26.10
2018-06-25T13:07:04.748Z,29.80
2018-06-25T13:08:04.722Z,17.80
2018-06-25T13:09:04.745Z,26.80
2018-06-25T13:10:04.821Z,7.50
2018-06-25T13:11:04.643Z,17.50
2018-06-25T13:12:04.614Z,18.60
2018-06-25T13:13:04.608Z,15.90
2018-06-25T13:14:04.600Z,14.60
2018-06-25T13:15:04.538Z,16.60
2018-06-25T13:16:04.510Z,14.90